createdAt,value
2019-02-09T00:00:34.137Z,3.50
2019-02-09T00:03:02.947Z,3.40
2019-02-09T00:05:31.652Z,3.30
2019-02-09T00:08:00.321Z,3.30
2019-02-09T00:10:28.954Z,3.30
2019-02-09T00:12:57.616Z,3.30
2019-02-09T00:15:26.319Z,3.30
2019-02-09T00:17:54.978Z,3.30
2019-02-09T00:20:23.610Z,3.40
2019-02-09T00:22:52.229Z,3.40
2019-02-09T00:25:23.130Z,3.50
2019-02-09T00:27:51.827Z,3.60
2019-02-09T00:30:22.726Z,3.60
2019-02-09T00:32:51.426Z,3.70
2019-02-09T00:35:22.007Z,3.70
2019-02-09T00:37:50.705Z,3.80
2019-02-09T00:40:24.190Z,4.00
2019-02-09T00:42:52.829Z,4.10
2019-02-09T00:45:22.823Z,4.20
2019-02-09T00:47:51.591Z,4.30
2019-02-09T00:50:20.772Z,4.50
2019-02-09T00:52:49.895Z,4.60
2019-02-09T00:55:27.454Z,4.70
2019-02-09T00:57:56.987Z,4.80
2019-02-09T01:00:32.423Z,4.90
2019-02-09T01:03:01.384Z,5.00
2019-02-09T01:05:42.013Z,5.00
2019-02-09T01:08:10.842Z,5.10
2019-02-09T01:10:39.547Z,5.20
2019-02-09T01:13:08.262Z,5.20
2019-02-09T01:15:37.173Z,5.20
2019-02-09T01:18:05.988Z,5.10
2019-02-09T01:20:37.454Z,5.10
2019-02-09T01:23:09.264Z,5.00
2019-02-09T01:25:37.991Z,4.90
2019-02-09T01:28:06.707Z,4.90
2019-02-09T01:30:35.530Z,4.80
2019-02-09T01:33:04.237Z,4.80
2019-02-09T01:35:33.923Z,4.70
2019-02-09T01:38:02.614Z,4.70
2019-02-09T01:40:31.352Z,4.70
2019-02-09T01:42:59.919Z,4.60
2019-02-09T01:45:31.618Z,4.60
2019-02-09T01:48:01.117Z,4.60
2019-02-09T01:50:31.919Z,4.60
2019-02-09T01:53:01.248Z,4.70
2019-02-09T01:55:30.037Z,4.70
2019-02-09T01:58:13.309Z,4.70
2019-02-09T02:00:37.666Z,4.70
2019-02-09T02:03:06.494Z,4.70
2019-02-09T02:05:35.201Z,4.60
2019-02-09T02:08:04.730Z,4.60
2019-02-09T02:10:35.593Z,4.60
2019-02-09T02:13:06.427Z,4.50
2019-02-09T02:15:35.222Z,4.50
2019-02-09T02:18:06.877Z,4.50
2019-02-09T02:20:35.569Z,4.50
2019-02-09T02:23:04.662Z,4.50
2019-02-09T02:25:33.484Z,4.50
2019-02-09T02:28:02.194Z,4.50
2019-02-09T02:30:38.640Z,4.50
2019-02-09T02:33:08.441Z,4.60
2019-02-09T02:35:38.584Z,4.60
2019-02-09T02:38:07.775Z,4.60
2019-02-09T02:40:36.500Z,4.60
2019-02-09T02:43:05.312Z,4.50
2019-02-09T02:45:34.137Z,4.50
2019-02-09T02:48:02.846Z,4.50
2019-02-09T02:50:31.822Z,4.40
2019-02-09T02:53:00.468Z,4.50
2019-02-09T02:55:31.003Z,4.70
2019-02-09T02:57:59.652Z,4.70
2019-02-09T03:00:35.215Z,4.70
2019-02-09T03:03:03.920Z,4.80
2019-02-09T03:05:32.630Z,4.80
2019-02-09T03:08:01.345Z,4.80
2019-02-09T03:10:30.043Z,4.80
2019-02-09T03:12:58.770Z,4.80
2019-02-09T03:15:32.029Z,4.80
2019-02-09T03:18:00.767Z,4.70
2019-02-09T03:20:29.689Z,4.70
2019-02-09T03:22:58.305Z,4.70
2019-02-09T03:25:36.694Z,4.70
2019-02-09T03:28:05.436Z,4.60
2019-02-09T03:30:46.364Z,4.60
2019-02-09T03:33:04.616Z,4.60
2019-02-09T03:35:33.325Z,4.70
2019-02-09T03:38:01.975Z,4.70
2019-02-09T03:40:30.647Z,4.70
2019-02-09T03:42:59.246Z,4.80
2019-02-09T03:45:32.624Z,4.90
2019-02-09T03:48:01.821Z,4.90
2019-02-09T03:50:32.462Z,4.90
2019-02-09T03:53:01.571Z,5.00
2019-02-09T03:55:30.391Z,5.00
2019-02-09T03:57:59.082Z,5.00
2019-02-09T04:00:29.638Z,5.00
2019-02-09T04:02:58.991Z,5.00
2019-02-09T04:05:27.693Z,4.90
2019-02-09T04:07:56.410Z,4.90
2019-02-09T04:10:29.733Z,4.90
2019-02-09T04:12:58.461Z,4.90
2019-02-09T04:15:28.559Z,5.00
2019-02-09T04:17:57.682Z,5.10
2019-02-09T04:20:26.699Z,5.10
2019-02-09T04:22:55.583Z,5.20
2019-02-09T04:25:24.545Z,5.20
2019-02-09T04:27:53.229Z,5.30
2019-02-09T04:30:24.050Z,5.40
2019-02-09T04:32:52.874Z,5.40
2019-02-09T04:35:21.691Z,5.50
2019-02-09T04:37:50.424Z,5.60
2019-02-09T04:40:30.189Z,5.60
2019-02-09T04:42:59.036Z,5.50
2019-02-09T04:45:27.780Z,5.60
2019-02-09T04:47:57.018Z,5.70
2019-02-09T04:50:26.261Z,5.70
2019-02-09T04:52:54.976Z,5.70
2019-02-09T04:55:27.829Z,5.70
2019-02-09T04:57:56.666Z,5.70
2019-02-09T05:00:30.316Z,5.80
2019-02-09T05:02:59.174Z,5.80
2019-02-09T05:05:29.854Z,5.80
2019-02-09T05:07:58.666Z,5.80
2019-02-09T05:10:27.398Z,5.80
2019-02-09T05:12:56.188Z,5.80
2019-02-09T05:15:25.116Z,5.80
2019-02-09T05:17:53.751Z,5.80
2019-02-09T05:20:25.127Z,5.90
2019-02-09T05:22:54.989Z,5.80
2019-02-09T05:25:23.988Z,5.80
2019-02-09T05:27:52.731Z,5.80
2019-02-09T05:30:26.715Z,5.80
2019-02-09T05:32:55.437Z,5.80
2019-02-09T05:35:24.534Z,5.80
2019-02-09T05:37:53.277Z,5.80
2019-02-09T05:40:26.207Z,5.90
2019-02-09T05:42:57.747Z,5.80
2019-02-09T05:45:29.169Z,5.80
2019-02-09T05:47:58.043Z,5.90
2019-02-09T05:50:26.840Z,5.90
2019-02-09T05:52:55.581Z,5.80
2019-02-09T05:55:24.346Z,5.70
2019-02-09T05:57:52.969Z,5.70
2019-02-09T06:00:38.042Z,5.70
2019-02-09T06:03:06.781Z,5.70
2019-02-09T06:05:35.484Z,5.60
2019-02-09T06:08:04.803Z,5.70
2019-02-09T06:10:33.507Z,5.60
2019-02-09T06:13:02.211Z,5.70
2019-02-09T06:15:31.229Z,5.70
2019-02-09T06:17:59.859Z,5.70
2019-02-09T06:20:30.445Z,5.60
2019-02-09T06:22:59.272Z,5.70
2019-02-09T06:25:28.551Z,5.60
2019-02-09T06:27:59.970Z,5.70
2019-02-09T06:30:32.826Z,5.60
2019-02-09T06:33:01.531Z,5.70
2019-02-09T06:35:30.626Z,5.70
2019-02-09T06:37:59.372Z,5.70
2019-02-09T06:40:28.064Z,5.80
2019-02-09T06:42:56.798Z,5.80
2019-02-09T06:45:29.002Z,5.80
2019-02-09T06:48:23.145Z,5.80
2019-02-09T06:50:51.907Z,5.80
2019-02-09T06:53:20.455Z,5.80
2019-02-09T06:55:49.151Z,5.90
2019-02-09T06:58:17.879Z,5.90
2019-02-09T07:00:46.577Z,5.80
2019-02-09T07:03:15.236Z,5.80
2019-02-09T07:05:43.942Z,5.80
2019-02-09T07:08:12.666Z,5.80
2019-02-09T07:10:41.363Z,5.90
2019-02-09T07:13:10.091Z,5.90
2019-02-09T07:15:38.786Z,6.00
2019-02-09T07:18:07.701Z,6.00
2019-02-09T07:20:36.507Z,6.00
2019-02-09T07:23:06.450Z,6.10
2019-02-09T07:25:35.199Z,6.10
2019-02-09T07:28:09.150Z,6.10
2019-02-09T07:30:37.402Z,6.20
2019-02-09T07:33:08.540Z,6.30
2019-02-09T07:35:37.356Z,6.40
2019-02-09T07:38:06.357Z,6.40
2019-02-09T07:40:36.638Z,6.50
2019-02-09T07:43:06.580Z,6.60
2019-02-09T07:45:39.102Z,6.80
2019-02-09T07:48:17.437Z,7.00
2019-02-09T07:50:46.919Z,7.10
2019-02-09T07:53:17.221Z,7.40
2019-02-09T07:55:46.680Z,7.60
2019-02-09T07:58:15.481Z,7.80
2019-02-09T08:00:59.092Z,8.00
2019-02-09T08:03:29.309Z,8.10
2019-02-09T08:05:58.244Z,8.20
2019-02-09T08:08:28.535Z,8.20
2019-02-09T08:10:57.178Z,8.20
2019-02-09T08:13:26.624Z,8.10
2019-02-09T08:15:55.315Z,8.10
2019-02-09T08:18:24.050Z,8.20
2019-02-09T08:20:53.611Z,8.30
2019-02-09T08:23:29.541Z,8.50
2019-02-09T08:26:02.959Z,8.80
2019-02-09T08:28:33.763Z,8.90
2019-02-09T08:31:04.604Z,8.90
2019-02-09T08:33:36.433Z,9.00
2019-02-09T08:36:06.697Z,9.00
2019-02-09T08:38:40.197Z,9.30
2019-02-09T08:41:10.864Z,10.20
2019-02-09T08:43:43.122Z,10.30
2019-02-09T08:46:11.822Z,11.20
2019-02-09T08:48:40.557Z,11.50
2019-02-09T08:51:11.297Z,10.80
2019-02-09T08:53:39.926Z,10.50
2019-02-09T08:56:09.094Z,10.00
2019-02-09T08:58:38.923Z,9.80
2019-02-09T09:01:08.373Z,9.70
2019-02-09T09:03:38.294Z,9.40
2019-02-09T09:06:09.574Z,9.40
2019-02-09T09:08:41.894Z,9.50
2019-02-09T09:11:14.573Z,9.70
2019-02-09T09:13:46.259Z,10.20
2019-02-09T09:16:15.495Z,10.20
2019-02-09T09:18:44.178Z,10.10
2019-02-09T09:21:12.861Z,9.80
2019-02-09T09:24:06.986Z,9.90
2019-02-09T09:26:36.326Z,10.20
2019-02-09T09:29:05.461Z,10.70
2019-02-09T09:31:34.162Z,12.50
2019-02-09T09:34:02.888Z,13.60
2019-02-09T09:36:32.153Z,13.90
2019-02-09T09:39:00.894Z,13.60
2019-02-09T09:41:31.022Z,12.70
2019-02-09T09:43:59.699Z,12.00
2019-02-09T09:46:28.911Z,11.40
2019-02-09T09:48:57.604Z,11.70
2019-02-09T09:51:26.618Z,12.00
2019-02-09T09:53:55.938Z,11.80
2019-02-09T09:56:25.133Z,11.60
2019-02-09T09:58:54.301Z,11.70
2019-02-09T10:01:25.794Z,12.40
2019-02-09T10:03:55.177Z,13.40
2019-02-09T10:06:25.916Z,14.00
2019-02-09T10:08:55.876Z,14.00
2019-02-09T10:11:26.670Z,13.50
2019-02-09T10:13:55.460Z,13.60
2019-02-09T10:16:24.320Z,13.80
2019-02-09T10:19:11.878Z,14.30
2019-02-09T10:21:25.309Z,14.00
2019-02-09T10:23:58.974Z,13.30
2019-02-09T10:26:32.045Z,13.00
2019-02-09T10:29:01.863Z,12.30
2019-02-09T10:31:32.087Z,11.80
2019-02-09T10:34:01.075Z,11.30
2019-02-09T10:36:31.320Z,10.80
2019-02-09T10:39:04.796Z,10.40
2019-02-09T10:41:33.579Z,10.10
2019-02-09T10:44:02.730Z,9.70
2019-02-09T10:46:31.530Z,9.60
2019-02-09T10:49:00.231Z,9.40
2019-02-09T10:51:30.851Z,9.50
2019-02-09T10:53:59.686Z,9.70
2019-02-09T10:56:28.566Z,10.30
2019-02-09T10:58:57.328Z,11.50
2019-02-09T11:01:26.133Z,12.30
2019-02-09T11:03:54.905Z,12.20
2019-02-09T11:06:23.645Z,12.10
2019-02-09T11:08:52.487Z,11.60
2019-02-09T11:11:21.511Z,11.20
2019-02-09T11:13:50.406Z,11.10
2019-02-09T11:16:19.931Z,10.90
2019-02-09T11:18:48.965Z,10.70
2019-02-09T11:21:25.375Z,10.60
2019-02-09T11:23:59.930Z,10.50
2019-02-09T11:26:34.756Z,10.40
2019-02-09T11:29:03.847Z,10.30
2019-02-09T11:31:32.499Z,10.20
2019-02-09T11:34:01.043Z,10.10
2019-02-09T11:36:29.703Z,10.20
2019-02-09T11:38:58.340Z,10.10
2019-02-09T11:41:27.096Z,10.20
2019-02-09T11:47:23.958Z,10.20
2019-02-09T11:49:52.707Z,10.10
2019-02-09T11:52:22.214Z,10.00
2019-02-09T11:54:51.075Z,9.90
2019-02-09T11:57:19.836Z,9.90
2019-02-09T11:59:48.467Z,9.90
2019-02-09T12:02:17.207Z,9.90
2019-02-09T12:04:46.071Z,10.00
2019-02-09T12:07:16.743Z,10.00
2019-02-09T12:09:50.911Z,9.90
2019-02-09T12:12:25.140Z,10.00
2019-02-09T12:14:54.070Z,9.90
2019-02-09T12:17:23.023Z,9.90
2019-02-09T12:19:52.198Z,9.80
2019-02-09T12:22:21.305Z,9.80
2019-02-09T12:24:50.279Z,9.70
2019-02-09T12:27:19.111Z,9.60
2019-02-09T12:29:56.481Z,9.50
2019-02-09T12:32:30.066Z,9.40
2019-02-09T12:35:06.630Z,9.50
2019-02-09T12:37:39.638Z,9.70
2019-02-09T12:40:23.378Z,9.70
2019-02-09T12:42:52.997Z,9.70
2019-02-09T12:45:25.691Z,9.70
2019-02-09T12:47:54.527Z,9.70
2019-02-09T12:50:27.593Z,9.60
2019-02-09T12:53:07.237Z,9.60
2019-02-09T12:55:41.030Z,9.60
2019-02-09T12:58:15.742Z,9.60
2019-02-09T13:00:40.700Z,9.40
2019-02-09T13:03:31.080Z,9.30
2019-02-09T13:05:55.391Z,9.30
2019-02-09T13:08:25.048Z,9.30
2019-02-09T13:10:53.848Z,9.30
2019-02-09T13:13:22.555Z,9.20
2019-02-09T13:15:51.407Z,9.30
2019-02-09T13:18:20.230Z,9.30
2019-02-09T13:20:49.189Z,9.30
2019-02-09T13:23:18.514Z,9.30
2019-02-09T13:25:50.155Z,9.40
2019-02-09T13:28:18.996Z,9.50
2019-02-09T13:30:47.784Z,9.50
2019-02-09T13:33:16.592Z,9.50
2019-02-09T13:35:45.424Z,9.50
2019-02-09T13:38:14.232Z,9.30
2019-02-09T13:40:44.113Z,9.20
2019-02-09T13:43:12.928Z,9.10
2019-02-09T13:45:46.429Z,9.20
2019-02-09T13:48:15.269Z,9.20
2019-02-09T13:50:44.668Z,9.20
2019-02-09T13:53:17.605Z,9.20
2019-02-09T13:55:48.830Z,9.30
2019-02-09T13:58:18.907Z,9.30
2019-02-09T14:00:48.015Z,9.30
2019-02-09T14:03:17.127Z,9.20
2019-02-09T14:05:46.137Z,9.10
2019-02-09T14:08:14.989Z,9.00
2019-02-09T14:10:43.946Z,9.00
2019-02-09T14:13:14.547Z,9.00
2019-02-09T14:15:43.477Z,8.90
2019-02-09T14:18:13.756Z,9.00
2019-02-09T14:20:42.586Z,9.00
2019-02-09T14:23:11.459Z,8.90
2019-02-09T14:25:40.291Z,8.90
2019-02-09T14:28:09.202Z,8.80
2019-02-09T14:30:39.408Z,8.80
2019-02-09T14:33:10.592Z,8.70
2019-02-09T14:35:41.031Z,8.60
2019-02-09T14:38:09.999Z,8.50
2019-02-09T14:40:38.954Z,8.50
2019-02-09T14:43:08.964Z,8.40
2019-02-09T14:45:40.422Z,8.40
2019-02-09T14:48:09.600Z,8.30
2019-02-09T14:50:38.385Z,8.30
2019-02-09T14:53:08.257Z,8.30
2019-02-09T14:55:39.448Z,8.30
2019-02-09T14:58:09.882Z,8.30
2019-02-09T15:00:50.104Z,8.30
2019-02-09T15:03:26.125Z,8.30
2019-02-09T15:05:49.440Z,8.30
2019-02-09T15:08:18.167Z,8.30
2019-02-09T15:10:46.932Z,8.20
2019-02-09T15:13:17.650Z,8.20
2019-02-09T15:15:55.167Z,8.20
2019-02-09T15:18:24.007Z,8.10
2019-02-09T15:21:01.448Z,8.00
2019-02-09T15:23:30.792Z,8.00
2019-02-09T15:25:59.540Z,7.90
2019-02-09T15:28:28.374Z,7.80
2019-02-09T15:30:57.222Z,7.80
2019-02-09T15:33:26.009Z,7.80
2019-02-09T15:35:56.058Z,7.80
2019-02-09T15:38:27.242Z,7.70
2019-02-09T15:40:56.414Z,7.70
2019-02-09T15:43:25.264Z,7.70
2019-02-09T15:45:55.464Z,7.70
2019-02-09T15:48:24.390Z,7.80
2019-02-09T15:50:55.784Z,7.80
2019-02-09T15:53:26.535Z,7.70
2019-02-09T15:55:59.757Z,7.70
2019-02-09T15:58:28.506Z,7.70
2019-02-09T16:01:00.109Z,7.60
2019-02-09T16:03:32.430Z,7.50
2019-02-09T16:06:05.682Z,7.50
2019-02-09T16:11:26.444Z,7.40
2019-02-09T16:13:58.178Z,7.30
2019-02-09T16:16:30.477Z,7.30
2019-02-09T16:19:06.965Z,7.20
2019-02-09T16:21:38.230Z,7.20
2019-02-09T16:24:13.546Z,7.10
2019-02-09T16:26:45.577Z,7.00
2019-02-09T16:32:15.903Z,7.00
2019-02-09T16:34:45.535Z,7.00
2019-02-09T16:37:16.678Z,7.10
2019-02-09T16:39:50.613Z,7.00
2019-02-09T16:42:20.177Z,7.00
2019-02-09T16:44:50.081Z,7.00
2019-02-09T16:47:21.203Z,6.90
2019-02-09T16:49:52.726Z,6.90
2019-02-09T16:52:25.938Z,6.80
2019-02-09T16:54:56.290Z,6.80
2019-02-09T16:57:28.418Z,6.70
2019-02-09T17:00:03.941Z,6.70
2019-02-09T17:02:34.669Z,6.60
2019-02-09T17:05:09.229Z,6.60
2019-02-09T17:07:40.273Z,6.50
2019-02-09T17:10:14.474Z,6.50
2019-02-09T17:12:44.152Z,6.50
2019-02-09T17:15:21.459Z,6.50
2019-02-09T17:17:51.276Z,6.50
2019-02-09T17:20:21.140Z,6.50
2019-02-09T17:22:51.812Z,6.60
2019-02-09T17:25:26.580Z,6.60
2019-02-09T17:27:58.421Z,6.50
2019-02-09T17:30:32.724Z,6.50
2019-02-09T17:33:02.233Z,6.50
2019-02-09T17:35:33.257Z,6.50
2019-02-09T17:38:02.886Z,6.50
2019-02-09T17:40:43.894Z,6.40
2019-02-09T17:43:14.707Z,6.40
2019-02-09T17:45:49.737Z,6.40
2019-02-09T17:48:19.499Z,6.40
2019-02-09T17:50:49.112Z,6.40
2019-02-09T17:53:18.527Z,6.50
2019-02-09T17:55:48.101Z,6.50
2019-02-09T17:58:17.393Z,6.60
2019-02-09T18:00:53.171Z,6.50
2019-02-09T18:03:23.488Z,6.50
2019-02-09T18:05:53.219Z,6.50
2019-02-09T18:08:23.482Z,6.50
2019-02-09T18:10:55.097Z,6.50
2019-02-09T18:13:28.269Z,6.50
2019-02-09T18:15:57.776Z,6.50
2019-02-09T18:18:27.028Z,6.50
2019-02-09T18:20:56.690Z,6.60
2019-02-09T18:23:26.159Z,6.80
2019-02-09T18:25:55.502Z,6.90
2019-02-09T18:28:25.150Z,6.90
2019-02-09T18:30:54.722Z,6.90
2019-02-09T18:33:26.444Z,6.90
2019-02-09T18:35:55.944Z,6.80
2019-02-09T18:38:26.309Z,6.80
2019-02-09T18:40:55.764Z,6.80
2019-02-09T18:43:25.354Z,6.80
2019-02-09T18:45:57.803Z,6.70
2019-02-09T18:48:28.320Z,6.60
2019-02-09T18:50:57.911Z,6.50
2019-02-09T18:53:30.114Z,6.50
2019-02-09T18:55:59.648Z,6.50
2019-02-09T18:58:31.288Z,6.40
2019-02-09T19:01:02.175Z,6.40
2019-02-09T19:03:31.499Z,6.40
2019-02-09T19:06:03.366Z,6.30
2019-02-09T19:08:32.740Z,6.30
2019-02-09T19:11:02.353Z,6.30
2019-02-09T19:13:32.101Z,6.40
2019-02-09T19:16:01.656Z,6.40
2019-02-09T19:18:32.501Z,6.40
2019-02-09T19:21:01.870Z,6.40
2019-02-09T19:23:32.530Z,6.40
2019-02-09T19:26:02.821Z,6.50
2019-02-09T19:28:34.720Z,6.50
2019-02-09T19:31:06.170Z,6.50
2019-02-09T19:33:35.696Z,6.40
2019-02-09T19:36:07.352Z,6.30
2019-02-09T19:38:38.576Z,6.40
2019-02-09T19:41:10.353Z,6.40
2019-02-09T19:43:39.578Z,6.40
2019-02-09T19:46:10.834Z,6.40
2019-02-09T19:48:40.994Z,6.30
2019-02-09T19:51:10.063Z,6.30
2019-02-09T19:53:44.880Z,6.30
2019-02-09T19:56:19.914Z,6.20
2019-02-09T19:58:51.359Z,6.30
2019-02-09T20:01:20.649Z,6.30
2019-02-09T20:03:50.941Z,6.20
2019-02-09T20:06:22.226Z,6.20
2019-02-09T20:08:56.075Z,6.20
2019-02-09T20:12:28.887Z,6.20
2019-02-09T20:13:56.976Z,6.20
2019-02-09T20:16:27.252Z,6.20
2019-02-09T20:18:58.728Z,6.10
2019-02-09T20:21:27.376Z,6.10
2019-02-09T20:23:57.745Z,6.20
2019-02-09T20:26:26.571Z,6.20
2019-02-09T20:28:56.382Z,6.20
2019-02-09T20:31:25.490Z,6.30
2019-02-09T20:33:55.954Z,6.30
2019-02-09T20:36:33.883Z,6.30
2019-02-09T20:39:04.645Z,6.30
2019-02-09T20:41:33.091Z,6.30
2019-02-09T20:44:01.750Z,6.30
2019-02-09T20:46:30.492Z,6.30
2019-02-09T20:48:59.370Z,6.20
2019-02-09T20:51:28.121Z,6.20
2019-02-09T20:53:56.875Z,6.20
2019-02-09T20:56:25.629Z,6.10
2019-02-09T20:58:54.533Z,6.00
2019-02-09T21:01:23.289Z,6.00
2019-02-09T21:03:52.015Z,6.00
2019-02-09T21:06:20.746Z,6.10
2019-02-09T21:08:49.318Z,6.10
2019-02-09T21:11:18.968Z,6.10
2019-02-09T21:13:47.764Z,6.10
2019-02-09T21:16:16.462Z,6.10
2019-02-09T21:18:45.117Z,6.10
2019-02-09T21:21:13.746Z,6.10
2019-02-09T21:23:42.373Z,6.10
2019-02-09T21:26:11.176Z,6.00
2019-02-09T21:28:40.001Z,6.00
2019-02-09T21:31:08.591Z,5.90
2019-02-09T21:33:37.578Z,6.00
2019-02-09T21:36:06.311Z,6.00
2019-02-09T21:38:34.940Z,6.00
2019-02-09T21:41:03.642Z,6.00
2019-02-09T21:43:45.462Z,6.00
2019-02-09T21:46:14.939Z,5.90
2019-02-09T21:48:44.010Z,5.90
2019-02-09T21:51:12.670Z,5.90
2019-02-09T21:53:41.297Z,5.80
2019-02-09T21:56:09.989Z,5.70
2019-02-09T21:58:38.715Z,5.60
2019-02-09T22:01:07.413Z,5.50
2019-02-09T22:03:37.447Z,5.40
2019-02-09T22:06:06.298Z,5.30
2019-02-09T22:08:35.220Z,5.30
2019-02-09T22:11:04.632Z,5.30
2019-02-09T22:13:33.876Z,5.20
2019-02-09T22:16:02.928Z,5.20
2019-02-09T22:18:31.628Z,5.20
2019-02-09T22:21:00.233Z,5.20
2019-02-09T22:23:29.497Z,5.20
2019-02-09T22:25:58.395Z,5.00
2019-02-09T22:28:27.019Z,5.00
2019-02-09T22:30:56.449Z,4.90
2019-02-09T22:33:25.213Z,4.70
2019-02-09T22:35:59.881Z,4.60
2019-02-09T22:38:24.053Z,4.50
2019-02-09T22:40:52.786Z,4.40
2019-02-09T22:43:21.437Z,4.30
2019-02-09T22:45:50.083Z,4.20
2019-02-09T22:48:18.644Z,4.10
2019-02-09T22:50:48.372Z,4.00
2019-02-09T22:53:17.073Z,3.90
2019-02-09T22:55:45.782Z,3.90
2019-02-09T22:58:14.533Z,3.80
2019-02-09T23:00:53.453Z,3.80
2019-02-09T23:03:27.951Z,3.80
2019-02-09T23:06:14.477Z,3.80
2019-02-09T23:08:46.295Z,3.70
2019-02-09T23:11:15.122Z,3.70
2019-02-09T23:13:43.831Z,3.60
2019-02-09T23:16:12.461Z,3.60
2019-02-09T23:18:41.130Z,3.60
2019-02-09T23:21:09.685Z,3.60
2019-02-09T23:23:38.321Z,3.50
2019-02-09T23:26:06.982Z,3.50
2019-02-09T23:28:35.576Z,3.50
2019-02-09T23:31:04.197Z,3.50
2019-02-09T23:33:32.909Z,3.50
2019-02-09T23:36:01.630Z,3.50
2019-02-09T23:38:30.189Z,3.50
2019-02-09T23:40:58.817Z,3.60
2019-02-09T23:43:27.418Z,3.60
2019-02-09T23:45:55.980Z,3.60
2019-02-09T23:48:24.676Z,3.70
2019-02-09T23:50:53.278Z,3.70
2019-02-09T23:53:21.910Z,3.80
2019-02-09T23:55:50.581Z,3.80
2019-02-09T23:58:19.220Z,3.90
